createdAt,value
2019-02-23T00:01:54.402Z,8.77
2019-02-23T00:04:24.596Z,9.10
2019-02-23T00:07:06.405Z,9.50
2019-02-23T00:09:46.355Z,9.83
2019-02-23T00:12:35.503Z,9.10
2019-02-23T00:15:24.688Z,10.10
2019-02-23T00:18:13.890Z,10.77
2019-02-23T00:21:03.290Z,9.93
2019-02-23T00:23:52.631Z,9.27
2019-02-23T00:26:42.488Z,9.00
2019-02-23T00:29:31.961Z,10.43
2019-02-23T00:32:21.432Z,9.83
2019-02-23T00:35:11.024Z,10.87
2019-02-23T00:38:00.436Z,9.97
2019-02-23T00:40:49.623Z,9.77
2019-02-23T00:43:39.084Z,9.67
2019-02-23T00:46:28.234Z,10.30
2019-02-23T00:49:17.631Z,10.13
2019-02-23T00:52:07.102Z,10.87
2019-02-23T00:54:56.550Z,10.37
2019-02-23T00:57:38.052Z,10.33
2019-02-23T01:00:20.090Z,9.67
2019-02-23T01:03:02.109Z,10.03
2019-02-23T01:05:43.579Z,8.33
2019-02-23T01:08:25.490Z,8.87
2019-02-23T01:11:05.601Z,9.27
2019-02-23T01:13:55.195Z,9.50
2019-02-23T01:16:44.385Z,9.73
2019-02-23T01:19:33.797Z,9.93
2019-02-23T01:22:23.303Z,8.50
2019-02-23T01:24:53.454Z,9.77
2019-02-23T01:27:42.769Z,10.67
2019-02-23T01:30:13.157Z,8.97
2019-02-23T01:32:43.402Z,10.03
2019-02-23T01:35:32.861Z,9.47
2019-02-23T01:38:22.376Z,9.47
2019-02-23T01:41:11.938Z,10.73
2019-02-23T01:44:01.165Z,10.60
2019-02-23T01:46:31.326Z,9.33
2019-02-23T01:49:01.753Z,8.67
2019-02-23T01:51:51.061Z,9.40
2019-02-23T01:54:40.517Z,10.17
2019-02-23T01:57:30.002Z,10.70
2019-02-23T02:00:19.850Z,9.17
2019-02-23T02:03:09.075Z,10.50
2019-02-23T02:05:58.953Z,10.77
2019-02-23T02:08:48.462Z,9.77
2019-02-23T02:11:29.895Z,10.10
2019-02-23T02:14:09.953Z,10.30
2019-02-23T02:16:59.192Z,9.10
2019-02-23T02:19:48.434Z,9.17
2019-02-23T02:22:37.915Z,10.10
2019-02-23T02:25:27.863Z,10.37
2019-02-23T02:28:17.003Z,10.10
2019-02-23T02:31:06.513Z,10.53
2019-02-23T02:34:18.158Z,9.83
2019-02-23T02:37:07.675Z,9.73
2019-02-23T02:42:51.426Z,10.40
2019-02-23T02:45:40.902Z,9.47
2019-02-23T02:48:30.100Z,10.23
2019-02-23T02:51:19.525Z,9.87
2019-02-23T02:53:49.720Z,9.63
2019-02-23T02:56:39.181Z,8.90
2019-02-23T02:59:28.399Z,8.97
2019-02-23T03:02:09.848Z,9.73
2019-02-23T03:04:51.829Z,9.63
2019-02-23T03:07:22.031Z,8.87
2019-02-23T03:10:11.473Z,9.13
2019-02-23T03:12:53.154Z,9.60
2019-02-23T03:15:34.656Z,10.07
2019-02-23T03:18:04.796Z,10.30
2019-02-23T03:20:54.023Z,9.17
2019-02-23T03:23:43.246Z,9.27
2019-02-23T03:26:32.488Z,8.93
2019-02-23T03:29:22.325Z,8.63
2019-02-23T03:32:11.950Z,10.27
2019-02-23T03:35:01.308Z,9.67
2019-02-23T03:38:11.670Z,9.63
2019-02-23T03:41:01.576Z,9.47
2019-02-23T03:43:50.768Z,10.03
2019-02-23T03:46:40.270Z,10.50
2019-02-23T03:49:29.887Z,11.73
2019-02-23T03:52:00.039Z,10.03
2019-02-23T03:54:30.202Z,10.70
2019-02-23T03:57:00.336Z,10.17
2019-02-23T03:59:30.755Z,10.10
2019-02-23T04:02:19.976Z,10.83
2019-02-23T04:04:50.120Z,9.80
2019-02-23T04:07:39.547Z,10.53
2019-02-23T04:10:28.739Z,10.47
2019-02-23T04:12:58.909Z,9.70
2019-02-23T04:15:29.358Z,10.50
2019-02-23T04:18:18.738Z,10.33
2019-02-23T04:21:00.947Z,10.93
2019-02-23T04:23:40.067Z,9.87
2019-02-23T04:26:29.355Z,10.97
2019-02-23T04:28:59.713Z,10.10
2019-02-23T04:31:51.046Z,11.87
2019-02-23T04:34:22.081Z,9.57
2019-02-23T04:36:52.274Z,10.43
2019-02-23T04:39:41.957Z,10.73
2019-02-23T04:42:12.330Z,10.77
2019-02-23T04:45:01.548Z,10.23
2019-02-23T04:47:50.716Z,12.30
2019-02-23T04:50:20.923Z,11.80
2019-02-23T04:52:51.034Z,12.40
2019-02-23T04:55:21.586Z,12.77
2019-02-23T04:57:51.702Z,13.00
2019-02-23T05:00:21.892Z,11.90
2019-02-23T05:03:11.094Z,12.47
2019-02-23T05:06:00.642Z,12.60
2019-02-23T05:08:30.791Z,12.60
2019-02-23T05:11:00.922Z,13.47
2019-02-23T05:13:51.256Z,14.13
2019-02-23T05:16:32.773Z,12.83
2019-02-23T05:19:14.432Z,13.03
2019-02-23T05:21:56.544Z,13.60
2019-02-23T05:24:38.122Z,13.47
2019-02-23T05:27:08.423Z,12.57
2019-02-23T05:29:58.952Z,13.13
2019-02-23T05:32:48.574Z,13.20
2019-02-23T05:35:39.251Z,13.93
2019-02-23T05:38:09.401Z,14.10
2019-02-23T05:40:58.580Z,13.40
2019-02-23T05:43:47.874Z,13.83
2019-02-23T05:46:37.334Z,15.80
2019-02-23T05:49:07.440Z,15.50
2019-02-23T05:51:56.653Z,15.63
2019-02-23T05:54:46.181Z,15.93
2019-02-23T05:57:16.680Z,19.53
2019-02-23T05:59:46.857Z,19.53
2019-02-23T06:02:17.028Z,17.80
2019-02-23T06:05:06.780Z,18.43
2019-02-23T06:07:55.999Z,16.53
2019-02-23T06:10:26.291Z,16.00
2019-02-23T06:12:56.542Z,16.40
2019-02-23T06:15:28.533Z,16.60
2019-02-23T06:18:18.056Z,16.00
2019-02-23T06:21:08.538Z,15.40
2019-02-23T06:23:38.697Z,16.23
2019-02-23T06:26:28.285Z,16.87
2019-02-23T06:29:17.820Z,16.93
2019-02-23T06:31:47.920Z,17.50
2019-02-23T06:34:18.118Z,18.17
2019-02-23T06:36:48.186Z,16.00
2019-02-23T06:39:37.435Z,17.20
2019-02-23T06:42:27.016Z,17.23
2019-02-23T06:44:57.225Z,16.70
2019-02-23T06:47:27.462Z,17.93
2019-02-23T06:49:57.682Z,17.93
2019-02-23T06:52:47.221Z,18.90
2019-02-23T06:55:36.714Z,17.90
2019-02-23T06:58:06.976Z,19.57
2019-02-23T07:00:58.990Z,19.97
2019-02-23T07:03:48.266Z,18.73
2019-02-23T07:06:37.406Z,18.53
2019-02-23T07:09:08.885Z,18.63
2019-02-23T07:11:58.307Z,18.93
2019-02-23T07:14:48.893Z,18.77
2019-02-23T07:17:30.197Z,17.73
2019-02-23T07:20:11.725Z,20.27
2019-02-23T07:22:41.881Z,19.13
2019-02-23T07:25:31.068Z,19.70
2019-02-23T07:28:01.239Z,20.47
2019-02-23T07:30:31.537Z,19.63
2019-02-23T07:33:03.607Z,18.87
2019-02-23T07:35:33.930Z,19.30
2019-02-23T07:38:04.106Z,19.87
2019-02-23T07:40:34.335Z,19.17
2019-02-23T07:43:04.538Z,18.63
2019-02-23T07:45:34.880Z,18.97
2019-02-23T07:48:24.255Z,19.50
2019-02-23T07:51:16.555Z,18.37
2019-02-23T07:54:06.509Z,19.67
2019-02-23T07:56:36.685Z,18.87
2019-02-23T07:59:46.191Z,18.63
2019-02-23T08:02:16.468Z,17.20
2019-02-23T08:04:46.892Z,18.03
2019-02-23T08:07:17.261Z,18.03
2019-02-23T08:09:47.615Z,18.13
2019-02-23T08:12:37.051Z,17.73
2019-02-23T08:15:08.836Z,17.33
2019-02-23T08:17:58.347Z,16.70
2019-02-23T08:20:39.658Z,17.20
2019-02-23T08:23:10.207Z,17.53
2019-02-23T08:25:40.430Z,16.77
2019-02-23T08:28:10.656Z,15.87
2019-02-23T08:30:42.109Z,16.23
2019-02-23T08:33:14.016Z,15.70
2019-02-23T08:36:03.452Z,14.93
2019-02-23T08:38:33.637Z,13.67
2019-02-23T08:44:03.792Z,12.30
2019-02-23T08:46:36.055Z,12.63
2019-02-23T08:49:28.544Z,12.40
2019-02-23T08:52:00.870Z,12.67
2019-02-23T08:54:31.306Z,11.93
2019-02-23T08:57:01.797Z,11.70
2019-02-23T08:59:51.238Z,12.00
2019-02-23T09:02:40.801Z,12.00
2019-02-23T09:05:11.596Z,11.67
2019-02-23T09:08:01.004Z,10.13
2019-02-23T09:10:31.158Z,11.53
2019-02-23T09:13:01.485Z,11.67
2019-02-23T09:15:42.593Z,10.77
2019-02-23T09:18:12.733Z,9.83
2019-02-23T09:20:44.971Z,10.07
2019-02-23T09:23:15.125Z,10.40
2019-02-23T09:25:46.625Z,9.50
2019-02-23T09:28:17.052Z,8.97
2019-02-23T09:30:47.502Z,8.47
2019-02-23T09:33:17.740Z,9.20
2019-02-23T09:36:07.743Z,9.33
2019-02-23T09:38:38.498Z,8.37
2019-02-23T09:41:08.646Z,8.27
2019-02-23T09:43:39.107Z,8.00
2019-02-23T09:46:09.368Z,7.77
2019-02-23T09:48:39.556Z,8.37
2019-02-23T09:51:09.886Z,8.10
2019-02-23T09:53:59.105Z,7.63
2019-02-23T09:56:32.191Z,8.10
2019-02-23T09:59:02.420Z,8.07
2019-02-23T10:01:52.530Z,7.10
2019-02-23T10:04:22.725Z,7.50
2019-02-23T10:06:53.183Z,7.20
2019-02-23T10:09:25.103Z,6.33
2019-02-23T10:12:15.415Z,6.53
2019-02-23T10:14:45.725Z,6.30
2019-02-23T10:17:27.310Z,6.30
2019-02-23T10:19:58.546Z,5.77
2019-02-23T10:22:48.918Z,5.87
2019-02-23T10:25:38.189Z,6.60
2019-02-23T10:28:47.857Z,6.17
2019-02-23T10:31:37.784Z,5.57
2019-02-23T10:34:28.470Z,5.83
2019-02-23T10:37:17.640Z,5.40
2019-02-23T10:39:47.896Z,5.20
2019-02-23T10:42:37.459Z,6.70
2019-02-23T10:45:10.983Z,4.57
2019-02-23T10:47:45.195Z,4.80
2019-02-23T10:50:34.404Z,4.77
2019-02-23T10:53:05.984Z,5.50
2019-02-23T10:55:56.778Z,4.30
2019-02-23T10:58:27.297Z,4.67
2019-02-23T11:00:58.754Z,4.80
2019-02-23T11:03:48.160Z,4.33
2019-02-23T11:06:18.449Z,4.70
2019-02-23T11:08:51.438Z,4.67
2019-02-23T11:11:22.008Z,4.23
2019-02-23T11:13:52.461Z,4.00
2019-02-23T11:16:22.720Z,4.63
2019-02-23T11:18:53.230Z,4.50
2019-02-23T11:21:23.679Z,4.13
2019-02-23T11:23:54.186Z,4.93
2019-02-23T11:26:43.332Z,4.20
2019-02-23T11:29:13.588Z,4.47
2019-02-23T11:31:43.753Z,4.13
2019-02-23T11:34:14.260Z,3.93
2019-02-23T11:36:47.497Z,3.90
2019-02-23T11:39:17.844Z,3.70
2019-02-23T11:41:48.883Z,3.60
2019-02-23T11:44:19.388Z,3.77
2019-02-23T11:46:59.798Z,3.80
2019-02-23T11:49:41.000Z,3.80
2019-02-23T11:52:11.172Z,4.13
2019-02-23T11:54:44.096Z,3.97
2019-02-23T11:57:13.885Z,3.63
2019-02-23T12:00:03.171Z,3.53
2019-02-23T12:02:33.316Z,3.57
2019-02-23T12:05:22.613Z,3.07
2019-02-23T12:07:52.825Z,3.37
2019-02-23T12:10:23.275Z,3.70
2019-02-23T12:13:12.522Z,3.60
2019-02-23T12:16:01.936Z,3.20
2019-02-23T12:18:32.183Z,3.53
2019-02-23T12:21:02.412Z,3.27
2019-02-23T12:23:33.139Z,3.20
2019-02-23T12:26:03.339Z,3.07
2019-02-23T12:28:33.491Z,3.10
2019-02-23T12:31:03.733Z,2.43
2019-02-23T12:33:34.358Z,2.50
2019-02-23T12:36:04.559Z,2.60
2019-02-23T12:38:54.013Z,2.60
2019-02-23T12:41:24.249Z,2.47
2019-02-23T12:43:54.602Z,2.57
2019-02-23T12:46:26.077Z,2.27
2019-02-23T12:49:15.855Z,2.70
2019-02-23T12:54:46.489Z,2.27
2019-02-23T12:57:47.799Z,2.73
2019-02-23T13:00:55.988Z,11.37
2019-02-23T13:03:27.117Z,2.33
2019-02-23T13:05:58.901Z,2.40
2019-02-23T13:12:44.885Z,2.43
2019-02-23T13:15:41.123Z,2.53
2019-02-23T13:18:49.471Z,2.60
2019-02-23T13:21:45.827Z,2.40
2019-02-23T13:24:28.475Z,2.50
2019-02-23T13:27:04.938Z,2.10
2019-02-23T13:30:13.177Z,2.70
2019-02-23T13:33:21.385Z,1.97
2019-02-23T13:36:16.990Z,2.50
2019-02-23T13:39:28.272Z,2.37
2019-02-23T13:42:51.376Z,2.10
2019-02-23T13:46:11.462Z,2.50
2019-02-23T13:49:34.701Z,2.47
2019-02-23T13:52:42.814Z,2.30
2019-02-23T13:55:51.039Z,2.43
2019-02-23T13:58:59.555Z,2.60
2019-02-23T14:02:05.545Z,2.57
2019-02-23T14:05:05.097Z,2.70
2019-02-23T14:08:04.829Z,2.90
2019-02-23T14:13:46.387Z,2.80
2019-02-23T14:16:28.679Z,2.70
2019-02-23T14:19:33.799Z,2.57
2019-02-23T14:22:31.280Z,2.60
2019-02-23T14:25:39.494Z,2.80
2019-02-23T14:28:48.623Z,2.47
2019-02-23T14:31:56.826Z,2.53
2019-02-23T14:35:04.995Z,3.67
2019-02-23T14:38:13.437Z,2.50
2019-02-23T14:41:21.912Z,2.60
2019-02-23T14:44:30.001Z,2.70
2019-02-23T14:47:38.278Z,2.73
2019-02-23T14:50:50.076Z,2.80
2019-02-23T14:53:58.338Z,2.50
2019-02-23T14:57:10.694Z,3.23
2019-02-23T15:00:18.963Z,2.40
2019-02-23T15:03:29.417Z,2.60
2019-02-23T15:06:37.778Z,2.33
2019-02-23T15:09:35.659Z,2.57
2019-02-23T15:12:43.919Z,2.70
2019-02-23T15:15:25.662Z,2.53
2019-02-23T15:18:07.495Z,2.70
2019-02-23T15:21:00.989Z,2.60
2019-02-23T15:23:55.994Z,2.47
2019-02-23T15:27:04.379Z,2.23
2019-02-23T15:30:29.640Z,2.30
2019-02-23T15:33:12.379Z,2.60
2019-02-23T15:36:20.644Z,2.70
2019-02-23T15:39:16.779Z,2.80
2019-02-23T15:42:24.894Z,2.50
2019-02-23T15:45:17.983Z,2.20
2019-02-23T15:48:26.278Z,2.40
2019-02-23T15:51:34.602Z,2.57
2019-02-23T15:54:24.607Z,2.30
2019-02-23T15:56:54.811Z,3.10
2019-02-23T15:59:27.493Z,2.87
2019-02-23T16:02:17.261Z,3.00
2019-02-23T16:05:07.767Z,2.70
2019-02-23T16:07:38.011Z,2.83
2019-02-23T16:10:08.254Z,2.73
2019-02-23T16:12:38.551Z,2.03
2019-02-23T16:15:27.899Z,2.60
2019-02-23T16:17:59.078Z,2.53
2019-02-23T16:20:48.268Z,3.53
2019-02-23T16:23:18.635Z,4.37
2019-02-23T16:26:00.498Z,2.77
2019-02-23T16:28:56.529Z,2.60
2019-02-23T16:31:26.829Z,2.90
2019-02-23T16:33:56.995Z,2.57
2019-02-23T16:36:28.638Z,2.70
2019-02-23T16:39:32.661Z,3.20
2019-02-23T16:41:52.586Z,2.60
2019-02-23T16:44:42.259Z,3.00
2019-02-23T16:47:52.849Z,2.90
2019-02-23T16:50:42.086Z,2.40
2019-02-23T16:53:12.337Z,3.57
2019-02-23T16:56:01.871Z,2.90
2019-02-23T16:58:34.626Z,4.33
2019-02-23T17:01:04.795Z,3.77
2019-02-23T17:03:54.236Z,3.90
2019-02-23T17:06:24.524Z,3.63
2019-02-23T17:09:13.878Z,4.00
2019-02-23T17:11:44.101Z,3.67
2019-02-23T17:14:37.057Z,3.83
2019-02-23T17:17:18.671Z,3.93
2019-02-23T17:19:49.045Z,3.57
2019-02-23T17:22:38.500Z,3.70
2019-02-23T17:25:09.071Z,3.67
2019-02-23T17:27:58.461Z,3.10
2019-02-23T17:30:28.672Z,3.50
2019-02-23T17:33:18.338Z,3.17
2019-02-23T17:35:55.669Z,2.93
2019-02-23T17:38:28.707Z,3.10
2019-02-23T17:41:17.948Z,3.30
2019-02-23T17:44:08.123Z,3.33
2019-02-23T17:46:42.535Z,2.53
2019-02-23T17:49:32.055Z,2.80
2019-02-23T17:52:21.490Z,2.77
2019-02-23T17:54:52.141Z,3.33
2019-02-23T17:57:41.443Z,3.40
2019-02-23T18:00:30.955Z,3.20
2019-02-23T18:03:20.393Z,3.30
2019-02-23T18:06:09.632Z,3.33
2019-02-23T18:09:17.806Z,3.17
2019-02-23T18:12:07.089Z,3.80
2019-02-23T18:17:40.087Z,3.53
2019-02-23T18:20:30.649Z,2.93
2019-02-23T18:23:20.214Z,3.73
2019-02-23T18:26:09.494Z,3.33
2019-02-23T18:28:58.770Z,3.33
2019-02-23T18:31:47.980Z,3.17
2019-02-23T18:34:37.804Z,3.60
2019-02-23T18:37:08.327Z,3.23
2019-02-23T18:39:57.929Z,2.90
2019-02-23T18:42:28.260Z,3.80
2019-02-23T18:45:17.712Z,3.67
2019-02-23T18:48:07.274Z,3.47
2019-02-23T18:50:56.534Z,3.07
2019-02-23T18:53:27.470Z,3.27
2019-02-23T18:55:57.695Z,3.20
2019-02-23T18:58:47.128Z,3.70
2019-02-23T19:01:17.420Z,3.60
2019-02-23T19:04:06.640Z,3.07
2019-02-23T19:06:47.947Z,3.40
2019-02-23T19:12:15.531Z,3.23
2019-02-23T19:15:04.872Z,3.10
2019-02-23T19:17:54.336Z,3.90
2019-02-23T19:20:43.871Z,3.47
2019-02-23T19:23:33.081Z,3.43
2019-02-23T19:26:23.515Z,2.90
2019-02-23T19:28:55.656Z,3.50
2019-02-23T19:31:50.722Z,3.60
2019-02-23T19:34:20.917Z,3.40
2019-02-23T19:36:51.055Z,3.27
2019-02-23T19:39:40.269Z,2.80
2019-02-23T19:42:29.516Z,3.00
2019-02-23T19:45:19.004Z,2.60
2019-02-23T19:47:49.175Z,2.83
2019-02-23T19:50:22.916Z,3.03
2019-02-23T19:53:12.513Z,2.40
2019-02-23T19:56:01.785Z,2.90
2019-02-23T20:01:59.297Z,2.93
2019-02-23T20:04:53.965Z,3.30
2019-02-23T20:07:43.469Z,3.13
2019-02-23T20:10:32.816Z,2.93
2019-02-23T20:13:23.093Z,3.00
2019-02-23T20:15:53.246Z,3.27
2019-02-23T20:21:01.763Z,2.90
2019-02-23T20:23:33.369Z,2.60
2019-02-23T20:26:03.926Z,3.10
2019-02-23T20:28:34.037Z,2.67
2019-02-23T20:31:09.905Z,3.03
2019-02-23T20:33:42.105Z,3.40
2019-02-23T20:36:13.311Z,3.17
2019-02-23T20:39:02.669Z,2.80
2019-02-23T20:41:52.386Z,3.13
2019-02-23T20:44:41.885Z,3.03
2019-02-23T20:47:37.250Z,2.90
2019-02-23T20:53:05.441Z,3.20
2019-02-23T20:55:35.980Z,3.33
2019-02-23T20:58:27.384Z,3.00
2019-02-23T21:00:57.404Z,2.83
2019-02-23T21:03:27.621Z,2.83
2019-02-23T21:06:18.597Z,2.80
2019-02-23T21:08:49.053Z,3.30
2019-02-23T21:11:38.609Z,3.20
2019-02-23T21:14:29.657Z,2.87
2019-02-23T21:17:20.281Z,2.67
2019-02-23T21:20:09.942Z,3.10
2019-02-23T21:22:40.202Z,2.83
2019-02-23T21:25:11.304Z,2.90
2019-02-23T21:27:41.446Z,3.33
2019-02-23T21:30:11.866Z,2.70
2019-02-23T21:32:42.036Z,3.20
2019-02-23T21:35:12.300Z,3.37
2019-02-23T21:38:02.531Z,2.50
2019-02-23T21:40:32.933Z,2.97
2019-02-23T21:43:06.235Z,2.50
2019-02-23T21:45:56.109Z,2.87
2019-02-23T21:48:47.093Z,3.10
2019-02-23T21:51:17.480Z,2.30
2019-02-23T21:53:47.823Z,2.93
2019-02-23T21:56:18.178Z,2.77
2019-02-23T21:59:07.493Z,2.20
2019-02-23T22:01:38.533Z,2.57
2019-02-23T22:04:27.757Z,2.73
2019-02-23T22:07:19.186Z,2.53
2019-02-23T22:09:49.403Z,2.40
2019-02-23T22:12:38.732Z,2.53
2019-02-23T22:15:28.300Z,2.47
2019-02-23T22:17:58.815Z,2.37
2019-02-23T22:20:51.110Z,2.40
2019-02-23T22:23:40.394Z,2.77
2019-02-23T22:26:11.024Z,2.93
2019-02-23T22:29:01.496Z,2.63
2019-02-23T22:31:31.711Z,2.97
2019-02-23T22:34:02.032Z,4.43
2019-02-23T22:36:52.956Z,3.23
2019-02-23T22:39:42.449Z,2.30
2019-02-23T22:42:12.666Z,2.60
2019-02-23T22:44:42.767Z,2.10
2019-02-23T22:47:14.908Z,2.20
2019-02-23T22:49:45.131Z,3.20
2019-02-23T22:52:15.354Z,2.50
2019-02-23T22:55:05.117Z,3.03
2019-02-23T22:57:40.451Z,3.13
2019-02-23T23:03:32.588Z,2.77
2019-02-23T23:06:02.888Z,2.30
2019-02-23T23:08:33.606Z,2.27
2019-02-23T23:11:23.093Z,2.50
2019-02-23T23:13:53.392Z,2.80
2019-02-23T23:16:43.447Z,2.27
2019-02-23T23:19:13.704Z,2.30
2019-02-23T23:21:43.951Z,2.50
2019-02-23T23:24:14.127Z,2.87
2019-02-23T23:26:46.803Z,2.17
2019-02-23T23:29:35.963Z,2.37
2019-02-23T23:32:07.281Z,2.47
2019-02-23T23:37:31.945Z,2.07
2019-02-23T23:40:02.067Z,2.90
2019-02-23T23:42:32.155Z,2.77
2019-02-23T23:45:02.337Z,2.50
2019-02-23T23:47:32.763Z,2.20
2019-02-23T23:50:02.934Z,1.90
2019-02-23T23:52:34.323Z,2.30
2019-02-23T23:55:07.360Z,2.37
